Time;durP1;ratioP1;P1;durP2;ratioP2;P2;SDS_P1;SDS_P2;PMS_P1;PMS_P2;Temp;Humidity;BMP_temperature;BMP_pressure;BME280_temperature;BME280_humidity;BME280_pressure;Samples;Min_cycle;Max_cycle;Signal;HPM_P1;HPM_P2
2021/04/06 00:00:30;;;;;;;2.33;1.63;;;19.80;54.40;;;;;;5117581;27;20029;-43
2021/04/06 00:02:57;;;;;;;2.30;1.60;;;19.80;54.80;;;;;;5133878;27;20031;-37
2021/04/06 00:05:24;;;;;;;3.30;1.65;;;19.80;55.30;;;;;;5135443;27;20026;-36
2021/04/06 00:07:50;;;;;;;1.63;1.38;;;19.80;54.60;;;;;;5115519;27;20023;-36
2021/04/06 00:10:44;;;;;;;1.83;1.50;;;19.80;54.60;;;;;;5114043;28;20075;-36
2021/04/06 00:13:10;;;;;;;3.90;1.80;;;19.80;54.70;;;;;;5108297;27;20276;-36
2021/04/06 00:15:36;;;;;;;3.65;1.60;;;19.80;54.90;;;;;;5100142;27;20043;-37
2021/04/06 00:18:04;;;;;;;2.17;1.65;;;19.80;55.00;;;;;;5111931;27;20034;-36
2021/04/06 00:20:31;;;;;;;2.20;1.30;;;19.80;55.20;;;;;;5134616;27;20027;-37
2021/04/06 00:22:58;;;;;;;3.28;1.42;;;19.80;55.10;;;;;;5105873;27;20556;-36
2021/04/06 00:25:29;;;;;;;2.83;1.60;;;19.80;55.00;;;;;;5117582;27;20035;-36
2021/04/06 00:27:56;;;;;;;2.58;1.38;;;19.80;55.10;;;;;;5114423;27;20415;-36
2021/04/06 00:30:30;;;;;;;2.75;1.38;;;19.70;55.00;;;;;;5091495;27;20087;-36
2021/04/06 00:33:06;;;;;;;1.73;1.30;;;19.70;54.50;;;;;;5133244;27;20059;-36
2021/04/06 00:35:34;;;;;;;2.00;1.33;;;19.70;54.40;;;;;;5115265;27;20388;-36
2021/04/06 00:38:01;;;;;;;5.55;1.70;;;19.70;54.20;;;;;;5137373;27;20049;-36
2021/04/06 00:40:27;;;;;;;3.13;1.70;;;19.70;54.40;;;;;;5113635;27;20023;-37
2021/04/06 00:43:00;;;;;;;4.35;1.45;;;19.70;54.50;;;;;;5130618;27;20055;-36
2021/04/06 00:45:26;;;;;;;4.10;1.73;;;19.70;54.80;;;;;;5107889;27;20537;-36
2021/04/06 00:48:03;;;;;;;2.65;1.60;;;19.70;54.50;;;;;;5100297;27;20042;-36
2021/04/06 00:50:31;;;;;;;1.92;1.48;;;19.70;54.50;;;;;;5129283;27;20016;-36
2021/04/06 00:52:57;;;;;;;2.83;1.48;;;19.70;54.20;;;;;;5128379;27;20031;-37
2021/04/06 00:55:23;;;;;;;3.35;1.58;;;19.70;54.30;;;;;;5098401;27;20034;-37
2021/04/06 00:57:50;;;;;;;3.35;1.70;;;19.70;54.10;;;;;;5135624;27;20055;-36
2021/04/06 01:00:22;;;;;;;1.80;1.35;;;19.70;54.10;;;;;;5116687;27;20023;-36
2021/04/06 01:03:01;;;;;;;2.85;1.63;;;19.70;54.00;;;;;;5116575;27;20031;-36
2021/04/06 01:05:28;;;;;;;2.55;1.40;;;19.70;54.10;;;;;;5135801;27;20019;-36
2021/04/06 01:07:57;;;;;;;3.25;1.35;;;19.70;54.20;;;;;;5134925;27;20027;-36
2021/04/06 01:10:27;;;;;;;2.42;1.50;;;19.60;54.30;;;;;;5134539;27;20051;-36
2021/04/06 01:12:55;;;;;;;1.98;1.50;;;19.70;54.10;;;;;;5129564;27;20027;-36
2021/04/06 01:15:23;;;;;;;3.13;1.65;;;19.60;54.20;;;;;;5107931;27;20011;-36
2021/04/06 01:17:49;;;;;;;2.63;1.60;;;19.60;54.30;;;;;;5131197;27;20514;-36
2021/04/06 01:20:18;;;;;;;3.63;1.52;;;19.60;54.20;;;;;;5096023;28;20453;-36
2021/04/06 01:22:45;;;;;;;2.78;1.73;;;19.60;54.20;;;;;;5129184;27;20011;-36
2021/04/06 01:25:21;;;;;;;2.58;1.60;;;19.60;54.20;;;;;;5123588;28;20024;-36
2021/04/06 01:27:48;;;;;;;1.95;1.60;;;19.60;54.20;;;;;;5112947;28;20043;-36
2021/04/06 01:30:16;;;;;;;1.98;1.67;;;19.60;54.30;;;;;;5131375;28;20031;-36
2021/04/06 01:32:42;;;;;;;4.65;1.50;;;19.60;54.20;;;;;;5114009;28;20609;-36
2021/04/06 01:35:10;;;;;;;2.45;1.73;;;19.50;54.20;;;;;;5131563;27;20036;-36
2021/04/06 01:37:36;;;;;;;1.88;1.67;;;19.50;54.20;;;;;;5135312;28;20030;-36
2021/04/06 01:40:04;;;;;;;1.97;1.63;;;19.50;54.30;;;;;;5095792;28;20023;-36
2021/04/06 01:42:33;;;;;;;2.88;1.55;;;19.50;54.30;;;;;;5135497;28;20058;-36
2021/04/06 01:45:02;;;;;;;2.33;1.70;;;19.50;54.30;;;;;;5129491;28;20028;-36
2021/04/06 01:47:29;;;;;;;2.25;1.55;;;19.50;54.40;;;;;;5088357;28;20028;-36
2021/04/06 01:49:56;;;;;;;2.70;1.60;;;19.50;54.30;;;;;;5131079;28;20032;-35
2021/04/06 01:52:22;;;;;;;;;;;19.50;54.50;;;;;;5118348;28;20052;-36
2021/04/06 01:54:58;;;;;;;3.08;1.70;;;19.40;54.40;;;;;;5112138;28;19924;-36
2021/04/06 01:57:32;;;;;;;3.08;1.55;;;19.40;54.50;;;;;;5115725;28;20023;-36
2021/04/06 02:00:01;;;;;;;1.95;1.52;;;19.40;54.60;;;;;;5131062;28;20071;-36
2021/04/06 02:02:30;;;;;;;2.72;1.80;;;19.40;54.70;;;;;;5111809;28;20027;-36
2021/04/06 02:04:57;;;;;;;3.08;1.90;;;19.40;54.70;;;;;;5132200;28;20039;-38
2021/04/06 02:07:26;;;;;;;1.90;1.27;;;19.40;54.70;;;;;;5127491;28;20106;-37
2021/04/06 02:09:52;;;;;;;2.58;1.73;;;19.40;54.70;;;;;;5130876;28;20058;-36
2021/04/06 02:12:25;;;;;;;2.72;1.80;;;19.30;54.70;;;;;;5130014;28;20091;-36
2021/04/06 02:14:53;;;;;;;1.77;1.67;;;19.40;54.80;;;;;;5133516;28;20026;-36
2021/04/06 02:17:19;;;;;;;6.07;1.90;;;19.30;54.80;;;;;;5132127;28;20028;-34
2021/04/06 02:19:45;;;;;;;3.85;1.73;;;19.30;54.80;;;;;;5132930;28;20101;-36
2021/04/06 02:22:14;;;;;;;2.92;1.63;;;19.30;54.90;;;;;;5129150;28;20071;-35
2021/04/06 02:24:42;;;;;;;1.73;1.40;;;19.30;54.90;;;;;;5129177;28;20027;-34
2021/04/06 02:27:30;;;;;;;2.25;1.75;;;19.20;54.90;;;;;;5116234;28;20475;-34
2021/04/06 02:29:57;;;;;;;;;;;19.20;55.00;;;;;;5136870;28;20057;-34
2021/04/06 02:32:28;;;;;;;3.58;1.80;;;19.20;54.90;;;;;;5135157;28;19912;-34
2021/04/06 02:35:03;;;;;;;1.95;1.63;;;19.20;55.00;;;;;;5117947;28;20086;-34
2021/04/06 02:37:31;;;;;;;2.88;1.90;;;19.20;55.10;;;;;;5134803;28;20046;-34
2021/04/06 02:39:59;;;;;;;2.20;1.80;;;19.20;55.10;;;;;;5132242;28;20058;-34
2021/04/06 02:42:33;;;;;;;3.20;1.85;;;19.10;55.10;;;;;;5132419;28;20029;-34
2021/04/06 02:45:08;;;;;;;2.30;1.83;;;19.10;55.20;;;;;;5121399;28;20030;-34
2021/04/06 02:47:41;;;;;;;3.63;1.90;;;19.10;55.20;;;;;;5137028;27;20065;-36
2021/04/06 02:50:12;;;;;;;3.90;1.90;;;19.10;55.20;;;;;;5129864;27;20047;-36
2021/04/06 02:52:39;;;;;;;1.95;1.75;;;19.10;55.20;;;;;;5137210;27;20106;-34
2021/04/06 02:55:06;;;;;;;2.20;1.80;;;19.10;55.30;;;;;;5125596;27;20030;-35
2021/04/06 02:57:33;;;;;;;2.78;1.73;;;19.00;55.30;;;;;;5136039;27;20027;-36
2021/04/06 02:59:59;;;;;;;3.00;1.90;;;19.00;55.30;;;;;;5135196;27;20047;-35
2021/04/06 03:02:25;;;;;;;2.25;1.80;;;19.00;55.30;;;;;;5134270;27;20027;-36
2021/04/06 03:04:51;;;;;;;3.05;1.90;;;19.00;55.40;;;;;;5136889;27;20024;-36
2021/04/06 03:07:26;;;;;;;2.20;1.92;;;19.00;55.40;;;;;;5137266;27;20515;-36
2021/04/06 03:09:57;;;;;;;1.90;1.80;;;19.00;55.50;;;;;;5127696;27;20051;-36
2021/04/06 03:12:28;;;;;;;2.65;1.80;;;19.00;55.50;;;;;;5131576;27;20030;-36
2021/04/06 03:14:54;;;;;;;2.42;1.92;;;19.00;55.50;;;;;;5106288;28;20106;-36
2021/04/06 03:17:20;;;;;;;2.50;2.28;;;18.90;55.40;;;;;;5129297;27;20031;-36
2021/04/06 03:19:55;;;;;;;2.85;2.25;;;18.90;55.40;;;;;;5121793;27;20043;-37
2021/04/06 03:22:21;;;;;;;3.22;2.10;;;18.90;55.50;;;;;;5111849;28;20039;-36
2021/04/06 03:24:47;;;;;;;4.28;2.10;;;18.90;55.50;;;;;;5135788;27;20031;-36
2021/04/06 03:27:14;;;;;;;2.03;1.73;;;18.90;55.50;;;;;;5119244;27;20019;-36
2021/04/06 03:29:40;;;;;;;2.40;1.98;;;18.90;55.50;;;;;;5132263;27;20061;-36
2021/04/06 03:32:06;;;;;;;2.95;2.10;;;18.80;55.50;;;;;;5121948;28;20024;-34
2021/04/06 03:34:39;;;;;;;2.83;1.90;;;18.80;55.60;;;;;;5137040;27;20035;-38
2021/04/06 03:37:06;;;;;;;2.90;2.15;;;18.80;55.60;;;;;;5135738;27;20375;-36
2021/04/06 03:39:33;;;;;;;2.17;1.95;;;18.80;55.60;;;;;;5132521;27;20515;-36
2021/04/06 03:42:00;;;;;;;4.68;2.08;;;18.80;55.60;;;;;;5133268;27;20031;-36
2021/04/06 03:44:30;;;;;;;2.75;1.92;;;18.80;55.60;;;;;;5135924;27;20053;-40
2021/04/06 03:46:58;;;;;;;3.50;2.03;;;18.80;55.50;;;;;;5140785;27;20069;-46
2021/04/06 03:49:26;;;;;;;3.60;2.05;;;18.70;55.50;;;;;;5133785;27;20023;-38
2021/04/06 03:51:53;;;;;;;4.28;2.40;;;18.70;55.60;;;;;;5133112;27;20058;-38
2021/04/06 03:54:30;;;;;;;2.72;2.28;;;18.70;55.70;;;;;;5138650;27;20467;-35
2021/04/06 03:56:56;;;;;;;4.05;2.35;;;18.70;55.70;;;;;;5137422;27;20036;-34
2021/04/06 03:59:27;;;;;;;2.67;2.05;;;18.70;55.80;;;;;;5128657;27;20102;-36
2021/04/06 04:01:53;;;;;;;3.63;2.40;;;18.60;55.70;;;;;;5134564;27;20030;-35
2021/04/06 04:04:19;;;;;;;2.63;2.25;;;18.70;55.80;;;;;;5133711;27;20092;-35
2021/04/06 04:06:46;;;;;;;3.50;2.38;;;18.60;55.70;;;;;;5131685;27;20035;-34
2021/04/06 04:09:12;;;;;;;3.47;2.38;;;18.60;55.90;;;;;;5131680;27;20412;-36
2021/04/06 04:11:40;;;;;;;2.80;2.35;;;18.60;55.80;;;;;;5136792;27;20070;-34
2021/04/06 04:14:06;;;;;;;3.13;2.55;;;18.60;55.80;;;;;;5131577;27;20035;-34
2021/04/06 04:16:38;;;;;;;3.10;2.55;;;18.60;55.90;;;;;;5128815;27;20027;-34
2021/04/06 04:19:06;;;;;;;3.90;2.65;;;18.60;55.80;;;;;;5132556;27;20070;-34
2021/04/06 04:21:33;;;;;;;3.90;2.50;;;18.50;55.90;;;;;;5127957;27;20115;-36
2021/04/06 04:23:59;;;;;;;2.97;2.55;;;18.50;55.90;;;;;;5131518;27;20720;-36
2021/04/06 04:26:25;;;;;;;2.70;2.33;;;18.50;56.00;;;;;;5134906;27;20053;-36
2021/04/06 04:28:51;;;;;;;3.08;2.75;;;18.50;56.00;;;;;;5136492;27;20114;-36
2021/04/06 04:31:17;;;;;;;3.05;2.65;;;18.50;56.10;;;;;;5140145;27;20023;-36
2021/04/06 04:33:43;;;;;;;6.00;3.40;;;18.40;56.10;;;;;;5114082;27;20081;-35
2021/04/06 04:36:10;;;;;;;6.03;3.67;;;18.40;56.10;;;;;;5136781;27;20476;-36
2021/04/06 04:38:36;;;;;;;5.53;4.10;;;18.40;56.30;;;;;;5134505;27;20089;-36
2021/04/06 04:41:02;;;;;;;6.10;3.97;;;18.40;56.40;;;;;;5130964;27;20078;-36
2021/04/06 04:43:28;;;;;;;8.27;4.30;;;18.40;56.40;;;;;;5132621;27;20118;-36
2021/04/06 04:45:54;;;;;;;7.20;3.78;;;18.40;56.50;;;;;;5139055;27;20027;-36
2021/04/06 04:48:21;;;;;;;7.90;4.32;;;18.40;56.50;;;;;;5127937;27;20038;-36
2021/04/06 04:50:47;;;;;;;5.55;3.63;;;18.40;56.60;;;;;;5120788;27;20023;-36
2021/04/06 04:53:13;;;;;;;9.93;4.43;;;18.40;56.60;;;;;;5132041;27;20094;-36
2021/04/06 04:55:39;;;;;;;7.50;4.40;;;18.40;56.60;;;;;;5115650;27;20038;-36
2021/04/06 04:58:05;;;;;;;9.85;3.95;;;18.40;56.60;;;;;;5133419;27;20041;-36
2021/04/06 05:00:32;;;;;;;6.97;3.78;;;18.30;56.60;;;;;;5135847;27;20051;-36
2021/04/06 05:02:58;;;;;;;6.60;3.28;;;18.30;56.60;;;;;;5131751;27;20035;-36
2021/04/06 05:05:25;;;;;;;6.55;3.85;;;18.30;56.70;;;;;;5126571;27;20035;-36
2021/04/06 05:07:51;;;;;;;6.70;4.05;;;18.30;56.60;;;;;;5128950;27;20047;-36
2021/04/06 05:10:17;;;;;;;7.57;4.15;;;18.30;56.70;;;;;;5133013;27;20077;-36
2021/04/06 05:12:47;;;;;;;5.43;3.78;;;18.30;56.70;;;;;;5131533;27;20031;-36
2021/04/06 05:15:13;;;;;;;6.63;4.05;;;18.30;56.70;;;;;;5132492;27;20035;-36
2021/04/06 05:17:39;;;;;;;4.82;3.45;;;18.30;56.70;;;;;;5114046;28;20108;-36
2021/04/06 05:20:06;;;;;;;5.07;3.70;;;18.30;56.70;;;;;;5131291;27;20073;-36
2021/04/06 05:22:33;;;;;;;6.50;3.08;;;18.20;56.80;;;;;;5134121;27;20515;-36
2021/04/06 05:24:59;;;;;;;5.45;3.42;;;18.30;56.90;;;;;;5137514;27;20028;-36
2021/04/06 05:27:25;;;;;;;5.25;3.30;;;18.20;56.80;;;;;;5127212;27;20091;-37
2021/04/06 05:29:51;;;;;;;6.47;3.70;;;18.20;56.80;;;;;;5134080;27;20055;-36
2021/04/06 05:32:18;;;;;;;5.57;3.53;;;18.20;56.90;;;;;;5130908;28;20034;-36
2021/04/06 05:34:44;;;;;;;5.72;3.78;;;18.20;56.90;;;;;;5128795;28;20038;-36
2021/04/06 05:37:10;;;;;;;6.22;3.55;;;18.20;56.90;;;;;;5133922;28;20058;-36
2021/04/06 05:39:36;;;;;;;5.28;3.60;;;18.20;56.90;;;;;;5131500;28;20069;-36
2021/04/06 05:42:02;;;;;;;6.43;3.80;;;18.20;56.90;;;;;;5116716;28;20027;-36
2021/04/06 05:44:29;;;;;;;6.18;3.50;;;18.20;57.00;;;;;;5111144;28;20039;-36
2021/04/06 05:46:57;;;;;;;3.35;2.58;;;18.20;57.00;;;;;;5114723;28;20026;-36
2021/04/06 05:49:26;;;;;;;4.43;3.45;;;18.10;56.90;;;;;;5115783;28;20107;-37
2021/04/06 05:51:53;;;;;;;4.38;3.45;;;18.10;57.50;;;;;;5114188;28;20043;-36
2021/04/06 05:54:20;;;;;;;4.28;3.28;;;18.10;57.00;;;;;;5128714;28;20079;-35
2021/04/06 05:56:46;;;;;;;4.20;3.45;;;18.10;57.00;;;;;;5131079;28;20031;-36
2021/04/06 05:59:12;;;;;;;6.43;3.55;;;18.10;57.10;;;;;;5135364;28;20035;-36
2021/04/06 06:01:40;;;;;;;3.78;2.22;;;18.10;57.20;;;;;;5114141;28;20023;-36
2021/04/06 06:04:08;;;;;;;3.88;3.40;;;18.10;57.10;;;;;;5130936;28;20031;-36
2021/04/06 06:06:34;;;;;;;7.40;3.97;;;18.10;57.10;;;;;;5107889;28;20035;-35
2021/04/06 06:09:03;;;;;;;5.30;3.65;;;18.10;57.10;;;;;;5132259;28;20039;-36
2021/04/06 06:11:29;;;;;;;4.50;3.30;;;18.00;57.10;;;;;;5131264;28;20046;-36
2021/04/06 06:13:55;;;;;;;6.07;3.40;;;18.10;57.20;;;;;;5126720;28;20069;-37
2021/04/06 06:16:25;;;;;;;4.63;3.57;;;18.10;57.30;;;;;;5131641;28;20039;-36
2021/04/06 06:18:58;;;;;;;4.75;3.80;;;18.00;57.20;;;;;;5129179;28;20040;-36
2021/04/06 06:21:36;;;;;;;4.78;3.70;;;18.00;57.20;;;;;;5129885;27;20400;-35
2021/04/06 06:24:02;;;;;;;3.92;3.25;;;18.00;57.20;;;;;;5137554;27;20031;-35
2021/04/06 06:26:28;;;;;;;4.57;3.70;;;18.00;57.30;;;;;;5138175;27;20396;-36
2021/04/06 06:29:14;;;;;;;5.07;3.50;;;18.00;57.30;;;;;;5137398;27;20027;-36
2021/04/06 06:31:45;;;;;;;5.82;3.10;;;18.00;57.30;;;;;;5138558;27;20665;-36
2021/04/06 06:34:33;;;;;;;4.70;3.58;;;17.90;57.40;;;;;;5115478;27;20027;-40
2021/04/06 06:37:07;;;;;;;4.65;3.40;;;17.90;57.30;;;;;;5120999;27;20011;-36
2021/04/06 06:39:35;;;;;;;4.75;3.55;;;18.00;57.30;;;;;;5131744;27;20040;-36
2021/04/06 06:42:05;;;;;;;5.22;3.70;;;17.90;57.40;;;;;;5142833;27;20030;-36
2021/04/06 06:44:32;;;;;;;4.65;3.25;;;17.90;57.40;;;;;;5129506;27;20863;-36
2021/04/06 06:47:11;;;;;;;5.23;3.90;;;17.90;57.40;;;;;;5137255;27;20035;-36
2021/04/06 06:49:39;;;;;;;6.00;3.63;;;17.90;57.50;;;;;;5136356;27;20035;-36
2021/04/06 06:52:27;;;;;;;4.63;3.88;;;17.90;57.50;;;;;;5137204;27;20066;-36
2021/04/06 06:55:16;;;;;;;3.95;3.20;;;17.90;57.50;;;;;;5136937;27;20027;-36
2021/04/06 06:57:42;;;;;;;6.68;3.70;;;17.90;57.50;;;;;;5137719;27;20019;-36
2021/04/06 07:00:11;;;;;;;4.53;3.67;;;17.90;57.50;;;;;;5141965;27;20027;-36
2021/04/06 07:02:39;;;;;;;4.68;3.53;;;17.90;57.50;;;;;;5136754;27;20043;-35
2021/04/06 07:05:25;;;;;;;4.45;3.50;;;17.80;57.50;;;;;;5137901;27;20027;-36
2021/04/06 07:07:54;;;;;;;5.68;4.05;;;17.80;57.40;;;;;;5135845;27;20027;-36
2021/04/06 07:10:22;;;;;;;4.25;3.38;;;17.80;57.50;;;;;;5145625;27;20045;-36
2021/04/06 07:13:02;;;;;;;5.15;3.40;;;17.80;57.60;;;;;;5130833;27;20117;-36
2021/04/06 07:15:29;;;;;;;7.03;3.90;;;17.80;57.60;;;;;;5119832;27;20019;-36
2021/04/06 07:18:03;;;;;;;4.80;3.42;;;17.80;57.60;;;;;;5133694;27;20039;-36
2021/04/06 07:20:30;;;;;;;4.15;3.63;;;17.80;57.60;;;;;;5115519;28;20264;-36
2021/04/06 07:22:59;;;;;;;4.85;4.03;;;17.80;57.60;;;;;;5090937;28;20019;-36
2021/04/06 07:25:25;;;;;;;5.07;3.60;;;17.70;57.60;;;;;;5120050;27;20023;-36
2021/04/06 07:27:52;;;;;;;5.18;3.90;;;17.70;57.70;;;;;;5120616;27;20023;-36
2021/04/06 07:30:19;;;;;;;5.05;3.80;;;17.70;57.70;;;;;;5102891;27;20076;-36
2021/04/06 07:32:45;;;;;;;4.78;3.85;;;17.70;57.70;;;;;;5135343;27;20066;-36
2021/04/06 07:35:12;;;;;;;4.50;3.70;;;17.70;57.70;;;;;;5101169;27;20019;-36
2021/04/06 07:37:43;;;;;;;4.85;3.42;;;17.70;57.80;;;;;;5134121;27;20038;-36
2021/04/06 07:40:11;;;;;;;5.13;3.63;;;17.70;57.90;;;;;;5136306;27;20031;-36
2021/04/06 07:42:39;;;;;;;3.92;3.53;;;17.70;57.80;;;;;;5129356;27;20038;-36
2021/04/06 07:45:08;;;;;;;4.03;3.63;;;17.70;57.70;;;;;;5117316;27;20030;-36
2021/04/06 07:47:38;;;;;;;4.45;3.65;;;17.70;57.80;;;;;;5137821;27;20099;-36
2021/04/06 07:50:11;;;;;;;5.30;4.05;;;17.60;57.80;;;;;;5133411;27;20057;-36
2021/04/06 07:52:37;;;;;;;4.78;3.75;;;17.60;57.80;;;;;;5109033;28;20035;-36
2021/04/06 07:55:03;;;;;;;6.40;3.67;;;17.60;57.80;;;;;;5117363;27;20126;-36
2021/04/06 07:57:43;;;;;;;4.83;3.73;;;17.60;57.80;;;;;;5115306;28;20130;-36
2021/04/06 08:00:11;;;;;;;5.45;3.45;;;17.60;57.80;;;;;;5111619;27;20083;-36
2021/04/06 08:02:46;;;;;;;3.78;3.45;;;17.60;57.80;;;;;;5126795;27;20024;-36
2021/04/06 08:05:25;;;;;;;3.95;3.47;;;17.60;57.80;;;;;;5109283;28;20031;-36
2021/04/06 08:07:51;;;;;;;4.25;3.50;;;17.60;57.80;;;;;;5111985;27;20039;-36
2021/04/06 08:10:17;;;;;;;5.07;3.88;;;17.50;57.80;;;;;;5138088;27;20058;-36
2021/04/06 08:12:44;;;;;;;4.05;3.65;;;17.60;57.80;;;;;;5131272;27;20045;-36
2021/04/06 08:15:12;;;;;;;4.22;3.53;;;17.60;57.90;;;;;;5112724;27;20027;-36
2021/04/06 08:17:48;;;;;;;5.00;3.80;;;17.50;58.00;;;;;;5135988;27;20035;-36
2021/04/06 08:20:26;;;;;;;4.68;3.65;;;17.50;57.90;;;;;;5136461;27;20502;-35
2021/04/06 08:22:57;;;;;;;4.57;3.70;;;17.50;58.50;;;;;;5126212;27;20054;-36
2021/04/06 08:25:24;;;;;;;4.45;3.55;;;17.50;57.90;;;;;;5134776;27;20019;-36
2021/04/06 08:27:51;;;;;;;4.65;3.72;;;17.50;58.00;;;;;;5137191;27;20144;-36
2021/04/06 08:30:24;;;;;;;5.35;4.05;;;17.50;57.90;;;;;;5132503;27;20038;-39
2021/04/06 08:35:45;;;;;;;4.57;3.60;;;17.50;58.00;;;;;;5132758;27;20038;-36
2021/04/06 08:38:29;;;;;;;4.80;3.80;;;17.40;57.90;;;;;;5131926;27;20095;-36
2021/04/06 08:41:09;;;;;;;5.72;3.53;;;17.40;58.00;;;;;;5133066;27;20037;-36
2021/04/06 08:43:52;;;;;;;4.30;3.75;;;17.40;58.10;;;;;;5135096;27;20049;-36
2021/04/06 08:46:27;;;;;;;4.88;4.03;;;17.40;58.00;;;;;;5135604;27;20100;-36
2021/04/06 08:48:56;;;;;;;4.90;3.97;;;17.40;58.10;;;;;;5137670;27;20023;-35
2021/04/06 08:51:33;;;;;;;4.03;3.55;;;17.40;58.20;;;;;;5127942;27;20049;-36
2021/04/06 08:54:00;;;;;;;4.50;3.88;;;17.40;58.10;;;;;;5131427;27;20027;-36
2021/04/06 08:56:27;;;;;;;4.68;3.97;;;17.40;58.20;;;;;;5113477;28;20028;-36
2021/04/06 08:59:32;;;;;;;4.50;3.47;;;17.40;58.20;;;;;;5135924;27;20079;-35
2021/04/06 09:02:01;;;;;;;4.85;4.07;;;17.30;58.20;;;;;;5133357;27;20035;-36
2021/04/06 09:04:32;;;;;;;5.18;3.88;;;17.40;58.20;;;;;;5130630;27;20049;-36
2021/04/06 09:06:58;;;;;;;5.63;3.75;;;17.30;58.20;;;;;;5129143;27;20028;-36
2021/04/06 09:09:26;;;;;;;7.00;4.05;;;17.30;58.20;;;;;;5131234;27;20176;-36
2021/04/06 09:11:56;;;;;;;4.45;3.88;;;17.30;58.30;;;;;;5135203;27;20023;-36
2021/04/06 09:14:23;;;;;;;4.03;3.50;;;17.30;58.30;;;;;;5131930;27;20110;-36
2021/04/06 09:16:54;;;;;;;4.90;3.75;;;17.30;58.20;;;;;;5137437;27;20049;-36
2021/04/06 09:19:21;;;;;;;7.90;4.22;;;17.30;58.30;;;;;;5112637;27;20431;-36
2021/04/06 09:21:58;;;;;;;4.30;3.85;;;17.30;58.30;;;;;;5118532;27;20023;-36
2021/04/06 09:24:25;;;;;;;5.00;3.70;;;17.30;58.30;;;;;;5134121;27;20146;-36
2021/04/06 09:26:53;;;;;;;5.20;3.92;;;17.30;58.30;;;;;;5134608;27;20114;-36
2021/04/06 09:29:29;;;;;;;4.75;3.63;;;17.30;58.30;;;;;;5132936;27;20069;-36
2021/04/06 09:31:56;;;;;;;5.18;3.63;;;17.30;58.40;;;;;;5110956;28;20804;-36
2021/04/06 09:34:27;;;;;;;4.88;3.78;;;17.30;58.40;;;;;;5130775;28;20027;-36
2021/04/06 09:37:16;;;;;;;4.05;3.58;;;17.20;58.30;;;;;;5125784;28;20087;-36
2021/04/06 09:39:45;;;;;;;4.18;3.72;;;17.20;58.20;;;;;;5116010;28;20059;-36
2021/04/06 09:42:12;;;;;;;4.63;3.80;;;17.20;58.30;;;;;;5128250;28;20036;-36
2021/04/06 09:44:40;;;;;;;4.32;3.72;;;17.20;58.40;;;;;;5127161;28;20047;-35
2021/04/06 09:47:13;;;;;;;4.50;3.40;;;17.20;58.30;;;;;;5100734;28;20059;-36
2021/04/06 09:49:41;;;;;;;4.38;3.50;;;17.20;58.40;;;;;;5113842;28;20528;-36
2021/04/06 09:52:12;;;;;;;4.93;3.70;;;17.20;58.30;;;;;;5105796;28;20042;-36
2021/04/06 09:54:42;;;;;;;5.07;4.13;;;17.20;58.30;;;;;;5126302;27;20023;-36
2021/04/06 09:57:09;;;;;;;5.85;4.18;;;17.10;58.30;;;;;;5146811;27;20484;-36
2021/04/06 09:59:39;;;;;;;5.07;4.13;;;17.10;58.30;;;;;;5138811;27;20035;-36
2021/04/06 10:02:06;;;;;;;4.55;4.00;;;17.10;58.30;;;;;;5117205;27;20028;-36
2021/04/06 10:04:37;;;;;;;6.03;4.07;;;17.10;58.40;;;;;;5141636;27;20038;-36
2021/04/06 10:07:17;;;;;;;4.65;3.88;;;17.10;58.40;;;;;;5120460;27;20264;-36
2021/04/06 10:09:51;;;;;;;5.15;3.83;;;17.10;58.60;;;;;;5117096;28;20043;-36
2021/04/06 10:12:18;;;;;;;5.85;4.43;;;17.10;58.40;;;;;;5101299;28;20023;-35
2021/04/06 10:14:45;;;;;;;6.03;4.25;;;17.10;58.40;;;;;;5107069;28;20090;-35
2021/04/06 10:17:16;;;;;;;5.45;4.38;;;17.00;58.40;;;;;;5117292;28;20028;-35
2021/04/06 10:19:58;;;;;;;4.03;3.63;;;17.00;58.40;;;;;;5118138;28;20676;-36
2021/04/06 10:22:25;;;;;;;5.15;4.40;;;17.00;58.40;;;;;;5115875;28;20019;-36
2021/04/06 10:24:56;;;;;;;4.67;4.17;;;17.00;58.40;;;;;;5106001;28;20043;-36
2021/04/06 10:27:35;;;;;;;4.45;3.83;;;17.00;58.50;;;;;;5112956;28;20320;-36
2021/04/06 10:30:13;;;;;;;4.50;4.03;;;17.00;58.50;;;;;;5120062;28;20023;-36
2021/04/06 10:32:49;;;;;;;5.68;4.13;;;17.00;58.40;;;;;;5113775;28;20754;-35
2021/04/06 10:35:27;;;;;;;5.03;4.10;;;17.00;58.50;;;;;;5111467;28;20046;-36
2021/04/06 10:37:55;;;;;;;5.40;4.43;;;16.90;58.40;;;;;;5109842;28;20040;-36
2021/04/06 10:40:37;;;;;;;5.43;4.00;;;17.00;58.60;;;;;;5113994;28;20024;-36
2021/04/06 10:43:08;;;;;;;5.03;4.40;;;16.90;58.50;;;;;;5111398;28;20034;-36
2021/04/06 10:45:37;;;;;;;5.43;4.22;;;16.90;58.50;;;;;;5118108;28;20046;-35
2021/04/06 10:48:21;;;;;;;5.45;4.10;;;16.90;58.60;;;;;;5117769;28;20027;-36
2021/04/06 10:50:54;;;;;;;5.07;3.95;;;16.90;58.60;;;;;;5113676;28;20040;-36
2021/04/06 10:53:25;;;;;;;4.50;3.70;;;16.90;58.60;;;;;;5116702;28;20028;-36
2021/04/06 10:56:08;;;;;;;5.85;4.50;;;16.90;58.70;;;;;;5116663;28;20083;-36
2021/04/06 10:58:36;;;;;;;5.38;4.00;;;16.90;58.70;;;;;;5111003;28;20047;-36
2021/04/06 11:01:07;;;;;;;5.22;4.22;;;16.80;58.70;;;;;;5116344;28;20024;-36
2021/04/06 11:03:38;;;;;;;5.35;4.15;;;16.80;58.60;;;;;;5113844;28;20066;-37
2021/04/06 11:06:27;;;;;;;6.28;4.45;;;16.80;58.60;;;;;;5114368;28;20030;-36
2021/04/06 11:08:54;;;;;;;4.35;3.95;;;16.80;58.80;;;;;;5119817;28;20035;-36
2021/04/06 11:11:33;;;;;;;4.85;3.90;;;16.80;58.70;;;;;;5145165;27;20114;-36
2021/04/06 11:14:11;;;;;;;5.35;4.05;;;16.80;58.70;;;;;;5133873;27;20023;-36
2021/04/06 11:16:39;;;;;;;4.75;3.97;;;16.80;58.70;;;;;;5134551;27;20039;-36
2021/04/06 11:19:12;;;;;;;;;;;16.80;58.80;;;;;;5138368;27;20065;-35
2021/04/06 11:21:42;;;;;;;4.93;4.10;;;16.80;58.70;;;;;;5130971;27;20257;-36
2021/04/06 11:24:09;;;;;;;5.75;4.63;;;16.70;58.80;;;;;;5116197;27;20023;-35
2021/04/06 11:26:35;;;;;;;4.30;3.90;;;16.70;58.70;;;;;;5131846;27;20015;-36
2021/04/06 11:29:02;;;;;;;4.75;4.25;;;16.70;58.70;;;;;;5137179;27;20735;-36
2021/04/06 11:31:28;;;;;;;4.80;4.07;;;16.70;58.80;;;;;;5139558;27;20080;-36
2021/04/06 11:33:56;;;;;;;4.40;3.95;;;16.70;58.80;;;;;;5134044;27;20057;-35
2021/04/06 11:36:22;;;;;;;5.03;4.43;;;16.70;58.80;;;;;;5128710;27;20035;-35
2021/04/06 11:38:49;;;;;;;5.30;4.22;;;16.70;58.80;;;;;;5139333;27;20434;-36
2021/04/06 11:41:18;;;;;;;5.43;4.00;;;16.70;58.90;;;;;;5135425;27;20023;-36
2021/04/06 11:43:45;;;;;;;5.82;4.28;;;16.70;58.90;;;;;;5139113;27;20023;-36
2021/04/06 11:46:12;;;;;;;4.65;3.78;;;16.70;58.90;;;;;;5121015;28;20023;-36
2021/04/06 11:48:38;;;;;;;5.50;4.00;;;16.70;58.80;;;;;;5140651;27;20020;-36
2021/04/06 11:51:05;;;;;;;4.93;3.92;;;16.70;58.80;;;;;;5136284;27;20034;-36
2021/04/06 11:53:31;;;;;;;4.65;3.90;;;16.70;58.90;;;;;;5095000;28;20032;-36
2021/04/06 11:55:57;;;;;;;4.63;4.07;;;16.60;58.90;;;;;;5122937;27;20027;-35
2021/04/06 11:58:24;;;;;;;5.82;4.05;;;16.60;59.00;;;;;;5137022;27;20038;-36
2021/04/06 12:00:50;;;;;;;5.35;4.40;;;16.60;58.90;;;;;;5129968;27;20031;-36
2021/04/06 12:03:16;;;;;;;6.93;4.22;;;16.60;58.90;;;;;;5114763;27;20024;-35
2021/04/06 12:05:43;;;;;;;4.55;3.78;;;16.60;59.10;;;;;;5113562;27;20061;-36
2021/04/06 12:08:09;;;;;;;5.22;4.28;;;16.60;59.00;;;;;;5136215;27;20055;-35
2021/04/06 12:10:36;;;;;;;4.93;4.10;;;16.60;58.90;;;;;;5133124;27;20062;-36
2021/04/06 12:13:03;;;;;;;5.57;4.13;;;16.60;58.90;;;;;;5138686;27;20031;-36
2021/04/06 12:15:29;;;;;;;4.40;3.95;;;16.60;59.00;;;;;;5135964;27;20030;-36
2021/04/06 12:17:55;;;;;;;4.38;3.80;;;16.60;58.90;;;;;;5123547;28;20032;-36
2021/04/06 12:20:22;;;;;;;5.87;4.30;;;16.60;59.00;;;;;;5137539;27;20059;-36
2021/04/06 12:22:49;;;;;;;4.83;4.03;;;16.60;58.90;;;;;;5134121;27;20019;-36
2021/04/06 12:25:16;;;;;;;5.20;4.57;;;16.50;58.90;;;;;;5125201;27;20070;-36
2021/04/06 12:27:43;;;;;;;5.35;4.32;;;16.50;58.90;;;;;;5136442;27;20028;-36
2021/04/06 12:30:10;;;;;;;5.65;4.40;;;16.50;59.00;;;;;;5135390;27;20042;-37
2021/04/06 12:32:36;;;;;;;5.97;4.50;;;16.60;59.10;;;;;;5131392;27;20775;-43
2021/04/06 12:35:02;;;;;;;5.85;4.28;;;16.50;59.00;;;;;;5130831;27;20032;-40
2021/04/06 12:37:32;;;;;;;5.63;4.75;;;16.50;59.00;;;;;;5121381;27;20495;-36
2021/04/06 12:39:58;;;;;;;4.45;3.97;;;16.50;59.00;;;;;;5135835;27;20034;-36
2021/04/06 12:42:25;;;;;;;5.97;4.30;;;16.50;58.90;;;;;;5134913;27;20027;-35
2021/04/06 12:44:51;;;;;;;4.78;4.03;;;16.60;58.90;;;;;;5133709;27;20267;-37
2021/04/06 12:47:17;;;;;;;4.75;4.25;;;16.60;58.90;;;;;;5132114;27;20666;-36
2021/04/06 12:49:43;;;;;;;4.82;4.07;;;16.60;58.90;;;;;;5132434;27;20042;-36
2021/04/06 12:52:10;;;;;;;5.38;4.40;;;16.60;58.90;;;;;;5138147;27;20028;-36
2021/04/06 12:54:36;;;;;;;5.47;4.50;;;16.60;58.90;;;;;;5114651;27;20146;-36
2021/04/06 12:57:02;;;;;;;5.28;4.18;;;16.60;58.90;;;;;;5127575;27;20031;-36
2021/04/06 12:59:28;;;;;;;6.07;4.53;;;16.60;58.90;;;;;;5135550;27;20039;-35
2021/04/06 13:01:54;;;;;;;5.57;4.05;;;16.50;58.90;;;;;;5131984;27;20072;-35